KRUT

Rutland - Southern Vermont Regional Airport

Rutland, Vermont, USA
METAR KRUT 162156Z AUTO 28014G18KT 10SM BKN055 00/M06 A2990 RMK AO2 SNE21 SLP146 P0000 T00001056 FZRANO $
Observed Flight Rules
Jan-16 @ 21:56 UTC (33 minutes ago) Visual Flight Rules
Wind Visibility Clouds
280° at 14 knots
 Gusting to 18 knots
10 miles
  • Broken at 5,500' AGL
Temperatures Readings Precipitation
Current 0°C / 32°F
Dewpoint -6°C / 21°F
Humidity 64%
Altimeter 29.9" Hg
Pressure 1014.6 hPa
Elevation 240
Current Rain 0.01
METAR KRUT 162156Z AUTO 28014G18KT 10SM BKN055 00/M06 A2990 RMK AO2 SNE21 SLP146 P0000 T00001056 FZRANO $
Observed Flight Rules
Jan-16 @ 21:56 UTC
(33 minutes ago)
VFR
Wind Visibility
280° at 14 knots
 Gusting to 18 knots
10 miles
Clouds
  • Broken at 5,500' AGL
Temperature Dewpoint
0°C / 32°F -6°C / 21°F
Humidity Altimeter Pressure
64% 29.9" Hg 1014.6 hPa
Current Rain
0.01